sensor_id;sensor_type;location;lat;lon;timestamp;P1;durP1;ratioP1;P2;durP2;ratioP2
13799;SDS011;6971;50.028;9.258;2024-03-08T00:02:05;15.37;;;8.47;;
13799;SDS011;6971;50.028;9.258;2024-03-08T00:07:05;17.50;;;7.63;;
13799;SDS011;6971;50.028;9.258;2024-03-08T00:12:07;13.57;;;8.33;;
13799;SDS011;6971;50.028;9.258;2024-03-08T00:17:07;16.47;;;7.90;;
13799;SDS011;6971;50.028;9.258;2024-03-08T00:22:09;16.73;;;8.27;;
13799;SDS011;6971;50.028;9.258;2024-03-08T00:27:11;16.60;;;6.90;;
13799;SDS011;6971;50.028;9.258;2024-03-08T00:32:11;15.07;;;8.83;;
13799;SDS011;6971;50.028;9.258;2024-03-08T00:37:13;12.90;;;7.40;;
13799;SDS011;6971;50.028;9.258;2024-03-08T00:42:13;13.77;;;7.57;;
13799;SDS011;6971;50.028;9.258;2024-03-08T00:47:14;14.73;;;7.00;;
13799;SDS011;6971;50.028;9.258;2024-03-08T00:52:14;20.07;;;9.10;;
13799;SDS011;6971;50.028;9.258;2024-03-08T00:57:15;12.17;;;7.53;;
13799;SDS011;6971;50.028;9.258;2024-03-08T01:02:15;17.77;;;8.33;;
13799;SDS011;6971;50.028;9.258;2024-03-08T01:07:18;13.03;;;8.00;;
13799;SDS011;6971;50.028;9.258;2024-03-08T01:12:19;15.97;;;7.70;;
13799;SDS011;6971;50.028;9.258;2024-03-08T01:17:20;14.87;;;8.07;;
13799;SDS011;6971;50.028;9.258;2024-03-08T01:22:20;17.97;;;8.40;;
13799;SDS011;6971;50.028;9.258;2024-03-08T01:27:21;15.57;;;8.10;;
13799;SDS011;6971;50.028;9.258;2024-03-08T01:32:21;13.53;;;7.20;;
13799;SDS011;6971;50.028;9.258;2024-03-08T01:37:23;14.43;;;7.43;;
13799;SDS011;6971;50.028;9.258;2024-03-08T01:42:24;18.00;;;7.80;;
13799;SDS011;6971;50.028;9.258;2024-03-08T01:47:24;16.27;;;8.17;;
13799;SDS011;6971;50.028;9.258;2024-03-08T01:52:25;16.53;;;7.90;;
13799;SDS011;6971;50.028;9.258;2024-03-08T01:57:27;19.47;;;9.73;;
13799;SDS011;6971;50.028;9.258;2024-03-08T02:02:28;17.43;;;8.37;;
13799;SDS011;6971;50.028;9.258;2024-03-08T02:07:31;17.83;;;8.50;;
13799;SDS011;6971;50.028;9.258;2024-03-08T02:12:31;16.70;;;8.67;;
13799;SDS011;6971;50.028;9.258;2024-03-08T02:17:32;16.73;;;7.43;;
13799;SDS011;6971;50.028;9.258;2024-03-08T02:22:33;16.63;;;7.77;;
13799;SDS011;6971;50.028;9.258;2024-03-08T02:27:33;15.73;;;8.57;;
13799;SDS011;6971;50.028;9.258;2024-03-08T02:32:34;17.77;;;7.70;;
13799;SDS011;6971;50.028;9.258;2024-03-08T02:37:34;14.33;;;7.93;;
13799;SDS011;6971;50.028;9.258;2024-03-08T02:42:34;13.27;;;8.97;;
13799;SDS011;6971;50.028;9.258;2024-03-08T02:47:35;20.23;;;9.63;;
13799;SDS011;6971;50.028;9.258;2024-03-08T02:52:35;16.27;;;8.30;;
13799;SDS011;6971;50.028;9.258;2024-03-08T02:57:36;22.27;;;9.10;;
13799;SDS011;6971;50.028;9.258;2024-03-08T03:02:36;18.33;;;9.00;;
13799;SDS011;6971;50.028;9.258;2024-03-08T03:07:37;14.13;;;8.40;;
13799;SDS011;6971;50.028;9.258;2024-03-08T03:12:38;15.30;;;7.93;;
13799;SDS011;6971;50.028;9.258;2024-03-08T03:17:39;15.80;;;8.03;;
13799;SDS011;6971;50.028;9.258;2024-03-08T03:22:40;16.07;;;8.30;;
13799;SDS011;6971;50.028;9.258;2024-03-08T03:27:41;16.60;;;7.73;;
13799;SDS011;6971;50.028;9.258;2024-03-08T03:32:41;18.57;;;8.00;;
13799;SDS011;6971;50.028;9.258;2024-03-08T03:37:47;14.73;;;7.83;;
13799;SDS011;6971;50.028;9.258;2024-03-08T03:43:06;14.37;;;8.27;;
13799;SDS011;6971;50.028;9.258;2024-03-08T03:48:07;19.27;;;7.73;;
13799;SDS011;6971;50.028;9.258;2024-03-08T03:53:11;17.30;;;9.03;;
13799;SDS011;6971;50.028;9.258;2024-03-08T03:58:13;16.60;;;8.67;;
13799;SDS011;6971;50.028;9.258;2024-03-08T04:03:14;18.93;;;9.57;;
13799;SDS011;6971;50.028;9.258;2024-03-08T04:08:15;15.50;;;8.77;;
13799;SDS011;6971;50.028;9.258;2024-03-08T04:13:17;13.93;;;8.30;;
13799;SDS011;6971;50.028;9.258;2024-03-08T04:18:17;22.03;;;10.43;;
13799;SDS011;6971;50.028;9.258;2024-03-08T04:23:19;18.97;;;8.70;;
13799;SDS011;6971;50.028;9.258;2024-03-08T04:28:19;17.63;;;8.90;;
13799;SDS011;6971;50.028;9.258;2024-03-08T04:33:20;20.97;;;8.57;;
13799;SDS011;6971;50.028;9.258;2024-03-08T04:38:21;17.93;;;9.47;;
13799;SDS011;6971;50.028;9.258;2024-03-08T04:43:22;20.17;;;9.40;;
13799;SDS011;6971;50.028;9.258;2024-03-08T04:48:25;22.50;;;10.83;;
13799;SDS011;6971;50.028;9.258;2024-03-08T04:53:28;15.87;;;8.47;;
13799;SDS011;6971;50.028;9.258;2024-03-08T04:58:29;16.80;;;8.70;;
13799;SDS011;6971;50.028;9.258;2024-03-08T05:03:29;23.43;;;9.90;;
13799;SDS011;6971;50.028;9.258;2024-03-08T05:08:30;19.97;;;9.50;;
13799;SDS011;6971;50.028;9.258;2024-03-08T05:13:30;18.13;;;10.37;;
13799;SDS011;6971;50.028;9.258;2024-03-08T05:18:30;25.33;;;10.80;;
13799;SDS011;6971;50.028;9.258;2024-03-08T05:23:32;19.60;;;8.63;;
13799;SDS011;6971;50.028;9.258;2024-03-08T05:28:32;21.43;;;10.33;;
13799;SDS011;6971;50.028;9.258;2024-03-08T05:33:33;19.37;;;8.87;;
13799;SDS011;6971;50.028;9.258;2024-03-08T05:38:34;19.27;;;9.80;;
13799;SDS011;6971;50.028;9.258;2024-03-08T05:43:35;19.47;;;10.20;;
13799;SDS011;6971;50.028;9.258;2024-03-08T05:48:35;16.80;;;9.17;;
13799;SDS011;6971;50.028;9.258;2024-03-08T05:53:35;24.33;;;9.73;;
13799;SDS011;6971;50.028;9.258;2024-03-08T05:58:36;17.33;;;9.60;;
13799;SDS011;6971;50.028;9.258;2024-03-08T06:03:36;16.67;;;8.23;;
13799;SDS011;6971;50.028;9.258;2024-03-08T06:08:36;22.13;;;8.63;;
13799;SDS011;6971;50.028;9.258;2024-03-08T06:13:37;19.63;;;9.40;;
13799;SDS011;6971;50.028;9.258;2024-03-08T06:18:37;19.20;;;9.27;;
13799;SDS011;6971;50.028;9.258;2024-03-08T06:23:39;20.53;;;9.17;;
13799;SDS011;6971;50.028;9.258;2024-03-08T06:28:39;19.77;;;9.87;;
13799;SDS011;6971;50.028;9.258;2024-03-08T06:33:40;21.20;;;10.00;;
13799;SDS011;6971;50.028;9.258;2024-03-08T06:38:40;18.77;;;9.27;;
13799;SDS011;6971;50.028;9.258;2024-03-08T06:43:45;18.60;;;9.10;;
13799;SDS011;6971;50.028;9.258;2024-03-08T06:48:48;23.10;;;9.33;;
13799;SDS011;6971;50.028;9.258;2024-03-08T06:53:49;22.60;;;10.07;;
13799;SDS011;6971;50.028;9.258;2024-03-08T06:58:49;19.23;;;9.53;;
13799;SDS011;6971;50.028;9.258;2024-03-08T07:03:49;19.00;;;9.93;;
13799;SDS011;6971;50.028;9.258;2024-03-08T07:08:52;19.10;;;10.27;;
13799;SDS011;6971;50.028;9.258;2024-03-08T07:13:52;18.90;;;9.60;;
13799;SDS011;6971;50.028;9.258;2024-03-08T07:18:54;23.37;;;12.07;;
13799;SDS011;6971;50.028;9.258;2024-03-08T07:23:54;17.00;;;8.90;;
13799;SDS011;6971;50.028;9.258;2024-03-08T07:29:00;25.23;;;12.70;;
13799;SDS011;6971;50.028;9.258;2024-03-08T07:34:01;24.33;;;11.60;;
13799;SDS011;6971;50.028;9.258;2024-03-08T07:39:02;20.47;;;11.23;;
13799;SDS011;6971;50.028;9.258;2024-03-08T07:44:02;16.70;;;9.27;;
13799;SDS011;6971;50.028;9.258;2024-03-08T07:49:03;20.40;;;9.83;;
13799;SDS011;6971;50.028;9.258;2024-03-08T07:54:04;19.70;;;11.07;;
13799;SDS011;6971;50.028;9.258;2024-03-08T07:59:04;21.27;;;9.40;;
13799;SDS011;6971;50.028;9.258;2024-03-08T08:04:05;22.13;;;10.60;;
13799;SDS011;6971;50.028;9.258;2024-03-08T08:09:05;20.10;;;8.40;;
13799;SDS011;6971;50.028;9.258;2024-03-08T08:14:06;18.43;;;10.33;;
13799;SDS011;6971;50.028;9.258;2024-03-08T08:19:09;17.90;;;9.70;;
13799;SDS011;6971;50.028;9.258;2024-03-08T08:24:09;17.23;;;9.53;;
13799;SDS011;6971;50.028;9.258;2024-03-08T08:29:10;17.93;;;10.97;;
13799;SDS011;6971;50.028;9.258;2024-03-08T08:34:11;18.53;;;10.03;;
13799;SDS011;6971;50.028;9.258;2024-03-08T08:39:11;17.87;;;10.87;;
13799;SDS011;6971;50.028;9.258;2024-03-08T08:44:13;20.13;;;11.60;;
13799;SDS011;6971;50.028;9.258;2024-03-08T08:49:15;16.60;;;10.10;;
13799;SDS011;6971;50.028;9.258;2024-03-08T08:54:20;14.07;;;9.73;;
13799;SDS011;6971;50.028;9.258;2024-03-08T08:59:21;19.33;;;11.20;;
13799;SDS011;6971;50.028;9.258;2024-03-08T09:04:25;14.83;;;8.40;;
13799;SDS011;6971;50.028;9.258;2024-03-08T09:09:25;16.20;;;10.03;;
13799;SDS011;6971;50.028;9.258;2024-03-08T09:14:25;18.13;;;10.03;;
13799;SDS011;6971;50.028;9.258;2024-03-08T09:19:26;14.57;;;8.80;;
13799;SDS011;6971;50.028;9.258;2024-03-08T09:24:26;14.80;;;9.03;;
13799;SDS011;6971;50.028;9.258;2024-03-08T09:29:26;17.43;;;9.23;;
13799;SDS011;6971;50.028;9.258;2024-03-08T09:34:27;16.00;;;9.47;;
13799;SDS011;6971;50.028;9.258;2024-03-08T09:39:27;15.70;;;9.53;;
13799;SDS011;6971;50.028;9.258;2024-03-08T09:44:27;14.73;;;9.63;;
13799;SDS011;6971;50.028;9.258;2024-03-08T09:49:31;18.37;;;9.93;;
13799;SDS011;6971;50.028;9.258;2024-03-08T09:54:31;14.40;;;9.10;;
13799;SDS011;6971;50.028;9.258;2024-03-08T09:59:31;16.60;;;9.30;;
13799;SDS011;6971;50.028;9.258;2024-03-08T10:04:39;17.40;;;9.67;;
13799;SDS011;6971;50.028;9.258;2024-03-08T10:09:41;14.17;;;8.50;;
13799;SDS011;6971;50.028;9.258;2024-03-08T10:14:47;13.00;;;7.80;;
13799;SDS011;6971;50.028;9.258;2024-03-08T10:19:50;10.83;;;8.10;;
13799;SDS011;6971;50.028;9.258;2024-03-08T10:24:54;15.47;;;8.60;;
13799;SDS011;6971;50.028;9.258;2024-03-08T10:29:55;13.43;;;8.40;;
13799;SDS011;6971;50.028;9.258;2024-03-08T10:34:55;14.20;;;8.67;;
13799;SDS011;6971;50.028;9.258;2024-03-08T10:40:02;15.83;;;9.07;;
13799;SDS011;6971;50.028;9.258;2024-03-08T10:45:15;13.90;;;8.80;;
13799;SDS011;6971;50.028;9.258;2024-03-08T10:50:28;15.20;;;9.30;;
13799;SDS011;6971;50.028;9.258;2024-03-08T10:55:29;16.00;;;8.83;;
13799;SDS011;6971;50.028;9.258;2024-03-08T11:00:34;15.20;;;9.63;;
13799;SDS011;6971;50.028;9.258;2024-03-08T11:05:39;13.17;;;7.83;;
13799;SDS011;6971;50.028;9.258;2024-03-08T11:10:53;16.57;;;8.37;;
13799;SDS011;6971;50.028;9.258;2024-03-08T11:15:55;16.27;;;9.60;;
13799;SDS011;6971;50.028;9.258;2024-03-08T11:20:56;14.93;;;8.83;;
13799;SDS011;6971;50.028;9.258;2024-03-08T11:25:57;18.57;;;9.63;;
13799;SDS011;6971;50.028;9.258;2024-03-08T11:36:11;17.63;;;9.85;;
13799;SDS011;6971;50.028;9.258;2024-03-08T11:41:20;15.80;;;9.23;;
13799;SDS011;6971;50.028;9.258;2024-03-08T11:46:24;15.27;;;9.33;;
13799;SDS011;6971;50.028;9.258;2024-03-08T11:51:24;16.13;;;8.60;;
13799;SDS011;6971;50.028;9.258;2024-03-08T11:56:25;14.80;;;8.83;;
13799;SDS011;6971;50.028;9.258;2024-03-08T12:01:25;13.63;;;8.37;;
13799;SDS011;6971;50.028;9.258;2024-03-08T12:06:26;14.97;;;8.80;;
13799;SDS011;6971;50.028;9.258;2024-03-08T12:11:36;16.37;;;10.23;;
13799;SDS011;6971;50.028;9.258;2024-03-08T12:16:37;14.70;;;9.40;;
13799;SDS011;6971;50.028;9.258;2024-03-08T12:21:37;13.83;;;8.77;;
13799;SDS011;6971;50.028;9.258;2024-03-08T12:26:40;15.13;;;9.63;;
13799;SDS011;6971;50.028;9.258;2024-03-08T12:31:41;13.10;;;8.80;;
13799;SDS011;6971;50.028;9.258;2024-03-08T12:36:46;17.50;;;10.47;;
13799;SDS011;6971;50.028;9.258;2024-03-08T12:41:48;15.00;;;8.57;;
13799;SDS011;6971;50.028;9.258;2024-03-08T12:46:51;16.87;;;8.73;;
13799;SDS011;6971;50.028;9.258;2024-03-08T12:51:53;14.57;;;8.50;;
13799;SDS011;6971;50.028;9.258;2024-03-08T12:56:54;13.60;;;8.10;;
13799;SDS011;6971;50.028;9.258;2024-03-08T13:01:54;12.53;;;8.43;;
13799;SDS011;6971;50.028;9.258;2024-03-08T13:06:55;12.30;;;8.17;;
13799;SDS011;6971;50.028;9.258;2024-03-08T13:11:55;11.93;;;7.13;;
13799;SDS011;6971;50.028;9.258;2024-03-08T13:16:58;15.30;;;8.27;;
13799;SDS011;6971;50.028;9.258;2024-03-08T13:21:59;14.20;;;8.13;;
13799;SDS011;6971;50.028;9.258;2024-03-08T13:26:59;12.07;;;7.17;;
13799;SDS011;6971;50.028;9.258;2024-03-08T13:31:59;15.23;;;8.73;;
13799;SDS011;6971;50.028;9.258;2024-03-08T13:37:01;13.67;;;7.47;;
13799;SDS011;6971;50.028;9.258;2024-03-08T13:42:03;11.03;;;7.00;;
13799;SDS011;6971;50.028;9.258;2024-03-08T13:47:09;11.90;;;8.03;;
13799;SDS011;6971;50.028;9.258;2024-03-08T13:52:11;14.67;;;8.73;;
13799;SDS011;6971;50.028;9.258;2024-03-08T13:57:16;12.27;;;7.73;;
13799;SDS011;6971;50.028;9.258;2024-03-08T14:02:18;14.57;;;7.80;;
13799;SDS011;6971;50.028;9.258;2024-03-08T14:07:18;13.77;;;8.33;;
13799;SDS011;6971;50.028;9.258;2024-03-08T14:12:19;14.37;;;8.23;;
13799;SDS011;6971;50.028;9.258;2024-03-08T14:17:20;14.50;;;7.80;;
13799;SDS011;6971;50.028;9.258;2024-03-08T14:22:20;13.90;;;7.63;;
13799;SDS011;6971;50.028;9.258;2024-03-08T14:27:21;11.47;;;6.43;;
13799;SDS011;6971;50.028;9.258;2024-03-08T14:32:22;11.63;;;7.10;;
13799;SDS011;6971;50.028;9.258;2024-03-08T14:37:24;9.50;;;6.23;;
13799;SDS011;6971;50.028;9.258;2024-03-08T14:42:28;10.07;;;6.50;;
13799;SDS011;6971;50.028;9.258;2024-03-08T14:47:28;10.93;;;6.93;;
13799;SDS011;6971;50.028;9.258;2024-03-08T14:52:28;9.90;;;6.77;;
13799;SDS011;6971;50.028;9.258;2024-03-08T14:57:29;12.20;;;6.57;;
13799;SDS011;6971;50.028;9.258;2024-03-08T15:02:32;12.33;;;6.73;;
13799;SDS011;6971;50.028;9.258;2024-03-08T15:07:39;10.87;;;6.47;;
13799;SDS011;6971;50.028;9.258;2024-03-08T15:12:40;12.53;;;6.67;;
13799;SDS011;6971;50.028;9.258;2024-03-08T15:17:40;10.93;;;6.30;;
13799;SDS011;6971;50.028;9.258;2024-03-08T15:22:43;10.60;;;6.17;;
13799;SDS011;6971;50.028;9.258;2024-03-08T15:27:46;11.13;;;6.90;;
13799;SDS011;6971;50.028;9.258;2024-03-08T15:32:48;9.13;;;5.67;;
13799;SDS011;6971;50.028;9.258;2024-03-08T15:37:56;8.47;;;5.70;;
13799;SDS011;6971;50.028;9.258;2024-03-08T15:42:57;10.97;;;6.57;;
13799;SDS011;6971;50.028;9.258;2024-03-08T15:47:58;10.30;;;5.63;;
13799;SDS011;6971;50.028;9.258;2024-03-08T15:52:58;10.57;;;5.67;;
13799;SDS011;6971;50.028;9.258;2024-03-08T15:57:59;11.40;;;5.73;;
13799;SDS011;6971;50.028;9.258;2024-03-08T16:03:00;11.50;;;6.27;;
13799;SDS011;6971;50.028;9.258;2024-03-08T16:08:11;12.03;;;6.03;;
13799;SDS011;6971;50.028;9.258;2024-03-08T16:13:15;8.37;;;4.97;;
13799;SDS011;6971;50.028;9.258;2024-03-08T16:18:17;10.27;;;5.93;;
13799;SDS011;6971;50.028;9.258;2024-03-08T16:23:21;14.00;;;7.20;;
13799;SDS011;6971;50.028;9.258;2024-03-08T16:28:22;12.80;;;8.20;;
13799;SDS011;6971;50.028;9.258;2024-03-08T16:33:26;11.87;;;6.57;;
13799;SDS011;6971;50.028;9.258;2024-03-08T16:38:26;19.33;;;8.53;;
13799;SDS011;6971;50.028;9.258;2024-03-08T16:43:27;15.20;;;7.40;;
13799;SDS011;6971;50.028;9.258;2024-03-08T16:48:27;15.10;;;8.50;;
13799;SDS011;6971;50.028;9.258;2024-03-08T16:53:30;12.60;;;7.60;;
13799;SDS011;6971;50.028;9.258;2024-03-08T16:58:31;11.87;;;6.87;;
13799;SDS011;6971;50.028;9.258;2024-03-08T17:03:33;12.53;;;7.30;;
13799;SDS011;6971;50.028;9.258;2024-03-08T17:08:34;11.20;;;7.00;;
13799;SDS011;6971;50.028;9.258;2024-03-08T17:13:35;14.47;;;7.47;;
13799;SDS011;6971;50.028;9.258;2024-03-08T17:18:36;13.20;;;7.83;;
13799;SDS011;6971;50.028;9.258;2024-03-08T17:23:36;14.63;;;8.07;;
13799;SDS011;6971;50.028;9.258;2024-03-08T17:28:37;11.57;;;6.87;;
13799;SDS011;6971;50.028;9.258;2024-03-08T17:33:41;16.13;;;8.13;;
13799;SDS011;6971;50.028;9.258;2024-03-08T17:38:42;10.07;;;5.83;;
13799;SDS011;6971;50.028;9.258;2024-03-08T17:43:46;12.80;;;6.40;;
13799;SDS011;6971;50.028;9.258;2024-03-08T17:48:46;14.50;;;6.60;;
13799;SDS011;6971;50.028;9.258;2024-03-08T17:53:47;12.23;;;6.57;;
13799;SDS011;6971;50.028;9.258;2024-03-08T17:58:49;9.40;;;5.77;;
13799;SDS011;6971;50.028;9.258;2024-03-08T18:03:50;11.70;;;5.77;;
13799;SDS011;6971;50.028;9.258;2024-03-08T18:08:51;12.70;;;5.87;;
13799;SDS011;6971;50.028;9.258;2024-03-08T18:13:52;11.43;;;6.27;;
13799;SDS011;6971;50.028;9.258;2024-03-08T18:18:52;10.37;;;5.57;;
13799;SDS011;6971;50.028;9.258;2024-03-08T18:23:52;10.83;;;5.33;;
13799;SDS011;6971;50.028;9.258;2024-03-08T18:28:53;11.33;;;6.67;;
13799;SDS011;6971;50.028;9.258;2024-03-08T18:33:53;12.43;;;6.87;;
13799;SDS011;6971;50.028;9.258;2024-03-08T18:38:54;14.27;;;6.83;;
13799;SDS011;6971;50.028;9.258;2024-03-08T18:43:54;7.93;;;5.43;;
13799;SDS011;6971;50.028;9.258;2024-03-08T18:48:57;8.40;;;6.03;;
13799;SDS011;6971;50.028;9.258;2024-03-08T18:53:59;13.20;;;6.07;;
13799;SDS011;6971;50.028;9.258;2024-03-08T18:59:00;10.87;;;6.00;;
13799;SDS011;6971;50.028;9.258;2024-03-08T19:04:00;11.10;;;6.70;;
13799;SDS011;6971;50.028;9.258;2024-03-08T19:09:00;11.43;;;5.80;;
13799;SDS011;6971;50.028;9.258;2024-03-08T19:14:04;10.43;;;6.17;;
13799;SDS011;6971;50.028;9.258;2024-03-08T19:19:05;11.33;;;6.43;;
13799;SDS011;6971;50.028;9.258;2024-03-08T19:24:06;9.40;;;6.10;;
13799;SDS011;6971;50.028;9.258;2024-03-08T19:29:07;10.67;;;5.73;;
13799;SDS011;6971;50.028;9.258;2024-03-08T19:34:11;10.90;;;6.57;;
13799;SDS011;6971;50.028;9.258;2024-03-08T19:39:12;9.57;;;5.37;;
13799;SDS011;6971;50.028;9.258;2024-03-08T19:44:12;9.07;;;6.17;;
13799;SDS011;6971;50.028;9.258;2024-03-08T19:49:14;9.30;;;6.10;;
13799;SDS011;6971;50.028;9.258;2024-03-08T19:54:16;8.97;;;5.83;;
13799;SDS011;6971;50.028;9.258;2024-03-08T19:59:17;10.33;;;6.03;;
13799;SDS011;6971;50.028;9.258;2024-03-08T20:04:17;11.57;;;5.83;;
13799;SDS011;6971;50.028;9.258;2024-03-08T20:09:18;12.80;;;6.93;;
13799;SDS011;6971;50.028;9.258;2024-03-08T20:14:19;9.93;;;5.73;;
13799;SDS011;6971;50.028;9.258;2024-03-08T20:19:19;10.97;;;5.90;;
13799;SDS011;6971;50.028;9.258;2024-03-08T20:24:21;10.77;;;5.80;;
13799;SDS011;6971;50.028;9.258;2024-03-08T20:29:22;10.40;;;5.87;;
13799;SDS011;6971;50.028;9.258;2024-03-08T20:34:23;9.83;;;6.03;;
13799;SDS011;6971;50.028;9.258;2024-03-08T20:39:23;10.43;;;6.23;;
13799;SDS011;6971;50.028;9.258;2024-03-08T20:44:23;11.00;;;6.00;;
13799;SDS011;6971;50.028;9.258;2024-03-08T20:49:24;12.20;;;6.13;;
13799;SDS011;6971;50.028;9.258;2024-03-08T20:54:24;9.80;;;5.43;;
13799;SDS011;6971;50.028;9.258;2024-03-08T20:59:25;9.67;;;6.07;;
13799;SDS011;6971;50.028;9.258;2024-03-08T21:04:25;9.33;;;5.23;;
13799;SDS011;6971;50.028;9.258;2024-03-08T21:09:28;20.03;;;8.80;;
13799;SDS011;6971;50.028;9.258;2024-03-08T21:14:30;9.50;;;6.30;;
13799;SDS011;6971;50.028;9.258;2024-03-08T21:19:33;11.27;;;6.30;;
13799;SDS011;6971;50.028;9.258;2024-03-08T21:24:34;12.00;;;6.37;;
13799;SDS011;6971;50.028;9.258;2024-03-08T21:29:35;8.43;;;5.93;;
13799;SDS011;6971;50.028;9.258;2024-03-08T21:34:38;12.07;;;7.13;;
13799;SDS011;6971;50.028;9.258;2024-03-08T21:39:39;8.90;;;5.77;;
13799;SDS011;6971;50.028;9.258;2024-03-08T21:44:40;13.57;;;6.17;;
13799;SDS011;6971;50.028;9.258;2024-03-08T21:49:40;10.60;;;6.37;;
13799;SDS011;6971;50.028;9.258;2024-03-08T21:54:44;11.30;;;6.13;;
13799;SDS011;6971;50.028;9.258;2024-03-08T21:59:45;10.17;;;6.50;;
13799;SDS011;6971;50.028;9.258;2024-03-08T22:04:46;12.60;;;6.83;;
13799;SDS011;6971;50.028;9.258;2024-03-08T22:09:46;9.33;;;6.17;;
13799;SDS011;6971;50.028;9.258;2024-03-08T22:14:47;14.03;;;7.93;;
13799;SDS011;6971;50.028;9.258;2024-03-08T22:19:47;11.40;;;6.70;;
13799;SDS011;6971;50.028;9.258;2024-03-08T22:24:48;12.67;;;7.03;;
13799;SDS011;6971;50.028;9.258;2024-03-08T22:29:53;13.50;;;7.20;;
13799;SDS011;6971;50.028;9.258;2024-03-08T22:34:53;11.97;;;6.93;;
13799;SDS011;6971;50.028;9.258;2024-03-08T22:39:53;10.30;;;6.27;;
13799;SDS011;6971;50.028;9.258;2024-03-08T22:44:54;15.37;;;7.30;;
13799;SDS011;6971;50.028;9.258;2024-03-08T22:49:55;12.83;;;7.03;;
13799;SDS011;6971;50.028;9.258;2024-03-08T22:54:55;14.30;;;6.60;;
13799;SDS011;6971;50.028;9.258;2024-03-08T22:59:55;11.90;;;6.13;;
13799;SDS011;6971;50.028;9.258;2024-03-08T23:04:56;15.20;;;6.70;;
13799;SDS011;6971;50.028;9.258;2024-03-08T23:09:57;11.63;;;7.00;;
13799;SDS011;6971;50.028;9.258;2024-03-08T23:14:58;12.87;;;6.57;;
13799;SDS011;6971;50.028;9.258;2024-03-08T23:19:59;13.90;;;7.07;;
13799;SDS011;6971;50.028;9.258;2024-03-08T23:24:59;11.87;;;6.43;;
13799;SDS011;6971;50.028;9.258;2024-03-08T23:29:59;13.17;;;7.20;;
13799;SDS011;6971;50.028;9.258;2024-03-08T23:35:00;14.27;;;7.27;;
13799;SDS011;6971;50.028;9.258;2024-03-08T23:40:00;14.03;;;7.23;;
13799;SDS011;6971;50.028;9.258;2024-03-08T23:45:01;12.80;;;6.67;;
13799;SDS011;6971;50.028;9.258;2024-03-08T23:50:01;14.67;;;6.53;;
13799;SDS011;6971;50.028;9.258;2024-03-08T23:55:01;11.00;;;7.23;;
